Time;durP1;ratioP1;P1;durP2;ratioP2;P2;SDS_P1;SDS_P2;PMS_P1;PMS_P2;Temp;Humidity;BMP_temperature;BMP_pressure;BME280_temperature;BME280_humidity;BME280_pressure;Samples;Min_cycle;Max_cycle;Signal;HPM_P1;HPM_P2
2021/01/04 00:02:17;;;;;;;59.73;29.53;;;0.60;99.90;;;;;;4205742;28;20686;-47
2021/01/04 00:04:49;;;;;;;65.17;32.27;;;0.60;99.90;;;;;;4207987;28;20286;-44
2021/01/04 00:07:20;;;;;;;59.97;30.87;;;0.60;99.90;;;;;;4206963;28;20640;-48
2021/01/04 00:10:12;;;;;;;56.30;28.48;;;0.60;99.90;;;;;;4169693;28;20274;-44
2021/01/04 00:12:47;;;;;;;58.47;28.97;;;0.60;99.90;;;;;;4207142;28;20039;-46
2021/01/04 00:15:07;;;;;;;58.47;27.43;;;0.60;99.90;;;;;;4203371;28;20288;-49
2021/01/04 00:17:49;;;;;;;55.53;28.85;;;0.60;99.90;;;;;;4207944;28;20269;-48
2021/01/04 00:20:08;;;;;;;61.93;30.63;;;0.70;99.90;;;;;;4205817;28;20555;-47
2021/01/04 00:22:39;;;;;;;50.93;27.73;;;0.70;99.90;;;;;;4206533;28;20326;-44
2021/01/04 00:24:50;;;;;;;;;;;0.70;99.90;;;;;;4207959;28;20269;-46
2021/01/04 00:27:20;;;;;;;53.40;25.38;;;0.70;99.90;;;;;;4205301;28;19908;-47
2021/01/04 00:29:21;;;;;;;48.17;25.40;;;0.80;99.90;;;;;;4197601;28;20545;-48
2021/01/04 00:31:27;;;;;;;46.10;23.93;;;0.70;99.90;;;;;;4206089;28;20272;-47
2021/01/04 00:33:33;;;;;;;47.60;25.37;;;0.70;99.90;;;;;;4207390;28;20272;-47
2021/01/04 00:35:34;;;;;;;44.47;23.77;;;0.80;99.90;;;;;;4205847;28;20280;-45
2021/01/04 00:37:53;;;;;;;51.27;25.33;;;0.80;99.90;;;;;;4207051;28;20987;-48
2021/01/04 00:40:01;;;;;;;49.17;23.03;;;0.80;99.90;;;;;;4205907;28;20618;-45
2021/01/04 00:42:10;;;;;;;54.30;25.23;;;0.70;99.90;;;;;;4209871;28;20288;-46
2021/01/04 00:44:21;;;;;;;57.53;30.17;;;0.70;99.90;;;;;;4209625;28;21365;-45
2021/01/04 00:46:31;;;;;;;55.20;30.05;;;0.50;99.90;;;;;;4210881;28;20337;-45
2021/01/04 00:48:48;;;;;;;55.78;29.13;;;0.20;99.90;;;;;;4210153;28;20040;-49
2021/01/04 00:50:53;;;;;;;54.70;29.27;;;0.00;99.90;;;;;;4210939;28;20097;-45
2021/01/04 00:53:07;;;;;;;56.37;27.87;;;-0.10;99.90;;;;;;4209567;28;20690;-44
2021/01/04 00:55:39;;;;;;;56.83;30.60;;;-0.20;99.90;;;;;;4210227;28;20272;-45
2021/01/04 00:58:01;;;;;;;60.00;29.77;;;-0.20;99.90;;;;;;4209685;28;20694;-48
2021/01/04 01:00:23;;;;;;;54.63;28.03;;;-0.20;99.90;;;;;;4210980;28;20432;-45
2021/01/04 01:02:43;;;;;;;50.50;27.67;;;-0.20;99.90;;;;;;4208639;28;20285;-49
2021/01/04 01:05:03;;;;;;;59.97;29.10;;;-0.30;99.90;;;;;;4210687;28;20277;-47
2021/01/04 01:07:22;;;;;;;63.13;32.45;;;-0.30;99.90;;;;;;4209666;28;20074;-47
2021/01/04 01:09:24;;;;;;;65.57;31.90;;;-0.40;99.90;;;;;;4209673;28;20117;-47
2021/01/04 01:11:34;;;;;;;70.83;33.40;;;-0.50;99.90;;;;;;4208887;28;20257;-43
2021/01/04 01:14:14;;;;;;;70.27;33.57;;;-0.60;99.90;;;;;;4210217;28;20328;-46
2021/01/04 01:16:59;;;;;;;63.70;31.17;;;-0.60;99.90;;;;;;4205139;28;20337;-43
2021/01/04 01:19:25;;;;;;;63.87;32.10;;;-0.50;99.90;;;;;;4189531;28;20795;-46
2021/01/04 01:21:26;;;;;;;64.00;32.97;;;-0.30;99.90;;;;;;4193132;28;20741;-43
2021/01/04 01:23:28;;;;;;;72.17;33.50;;;-0.30;99.90;;;;;;4209006;28;20695;-49
2021/01/04 01:25:37;;;;;;;67.77;34.90;;;-0.10;99.90;;;;;;4209886;28;20667;-44
2021/01/04 01:28:16;;;;;;;68.97;33.27;;;0.00;99.90;;;;;;4207657;28;20780;-48
2021/01/04 01:30:20;;;;;;;69.17;33.50;;;0.00;99.90;;;;;;4209909;28;20276;-47
2021/01/04 01:32:52;;;;;;;68.53;34.13;;;0.10;99.90;;;;;;4208658;28;20345;-46
2021/01/04 01:35:04;;;;;;;63.07;31.00;;;0.20;99.90;;;;;;4210122;28;20277;-45
2021/01/04 01:37:11;;;;;;;64.67;30.10;;;0.20;99.90;;;;;;4209208;28;20330;-44
2021/01/04 01:39:46;;;;;;;61.50;30.23;;;0.30;99.90;;;;;;4210183;28;20293;-47
2021/01/04 01:42:12;;;;;;;59.63;29.93;;;0.30;99.90;;;;;;4209103;28;20322;-45
2021/01/04 01:44:25;;;;;;;59.83;30.00;;;0.30;99.90;;;;;;4209061;28;20334;-50
2021/01/04 01:46:49;;;;;;;57.83;30.70;;;0.30;99.90;;;;;;4209599;28;20269;-46
2021/01/04 01:49:13;;;;;;;54.63;26.60;;;0.40;99.90;;;;;;4208085;28;20715;-47
2021/01/04 01:51:52;;;;;;;60.70;28.53;;;0.40;99.90;;;;;;4204464;28;20277;-51
2021/01/04 01:54:03;;;;;;;61.70;27.07;;;0.40;99.90;;;;;;4208559;28;20292;-44
2021/01/04 01:56:14;;;;;;;56.53;28.37;;;0.50;99.90;;;;;;4210143;28;20269;-47
2021/01/04 01:58:37;;;;;;;53.80;27.50;;;0.50;99.90;;;;;;4208484;28;20806;-45
2021/01/04 02:01:05;;;;;;;51.67;26.07;;;0.50;99.90;;;;;;4209840;28;20300;-47
2021/01/04 02:03:08;;;;;;;50.27;26.33;;;0.50;99.90;;;;;;4208006;28;20974;-46
2021/01/04 02:05:18;;;;;;;52.07;25.60;;;0.50;99.90;;;;;;4209760;28;20357;-48
2021/01/04 02:07:43;;;;;;;52.92;27.35;;;0.50;99.90;;;;;;4208161;28;20307;-41
2021/01/04 02:10:00;;;;;;;59.63;27.40;;;0.40;99.90;;;;;;4209413;28;20108;-49
2021/01/04 02:12:42;;;;;;;61.10;28.90;;;0.40;99.90;;;;;;4206965;28;20280;-48
2021/01/04 02:15:09;;;;;;;71.83;34.73;;;0.20;99.90;;;;;;4208627;28;20269;-43
2021/01/04 02:17:21;;;;;;;67.80;34.53;;;0.10;99.90;;;;;;4208982;28;21045;-51
2021/01/04 02:19:56;;;;;;;79.80;36.23;;;0.00;99.90;;;;;;4207800;28;20325;-44
2021/01/04 02:22:18;;;;;;;71.13;33.27;;;0.00;99.90;;;;;;4209584;28;20273;-45
2021/01/04 02:24:22;;;;;;;66.67;31.77;;;0.00;99.90;;;;;;4207978;28;20276;-49
2021/01/04 02:26:27;;;;;;;62.57;30.97;;;0.10;99.90;;;;;;4209117;28;20272;-47
2021/01/04 02:28:32;;;;;;;67.10;33.67;;;0.20;99.90;;;;;;4208100;28;20332;-44
2021/01/04 02:30:33;;;;;;;64.30;32.13;;;0.20;99.90;;;;;;4209151;28;20338;-44
2021/01/04 02:32:35;;;;;;;69.93;35.43;;;0.20;99.90;;;;;;4207865;28;20269;-49
2021/01/04 02:34:46;;;;;;;69.70;32.97;;;0.30;99.90;;;;;;4208902;28;20817;-46
2021/01/04 02:36:56;;;;;;;71.80;32.87;;;0.30;99.90;;;;;;4207695;28;20683;-45
2021/01/04 02:39:09;;;;;;;61.92;29.75;;;0.30;99.90;;;;;;4208765;28;20288;-45
2021/01/04 02:41:12;;;;;;;65.50;31.13;;;0.30;99.90;;;;;;4207797;28;20036;-47
2021/01/04 02:43:13;;;;;;;60.80;30.07;;;0.40;99.90;;;;;;4209219;28;20418;-48
2021/01/04 02:45:34;;;;;;;65.53;30.90;;;0.40;99.90;;;;;;4205433;28;20346;-48
2021/01/04 02:47:48;;;;;;;59.67;30.30;;;0.40;99.90;;;;;;4208392;28;20426;-45
2021/01/04 02:50:08;;;;;;;64.17;29.87;;;0.40;99.90;;;;;;4208061;28;20323;-47
2021/01/04 02:52:15;;;;;;;60.50;31.50;;;0.50;99.90;;;;;;4209187;28;20335;-45
2021/01/04 02:54:34;;;;;;;50.83;26.73;;;0.50;99.90;;;;;;4207302;28;20533;-46
2021/01/04 02:56:57;;;;;;;58.83;28.63;;;0.50;99.90;;;;;;4208702;28;20801;-49
2021/01/04 02:59:27;;;;;;;60.70;30.30;;;0.60;99.90;;;;;;4207987;28;20323;-45
2021/01/04 03:01:47;;;;;;;55.53;27.27;;;0.60;99.90;;;;;;4203991;28;20284;-47
2021/01/04 03:03:48;;;;;;;58.93;28.80;;;0.60;99.90;;;;;;4207064;28;20431;-46
2021/01/04 03:05:49;;;;;;;54.10;28.33;;;0.60;99.90;;;;;;4208731;28;20281;-48
2021/01/04 03:08:02;;;;;;;58.23;29.20;;;0.60;99.90;;;;;;4207429;28;20318;-45
2021/01/04 03:10:18;;;;;;;57.60;29.70;;;0.60;99.90;;;;;;4208084;28;20276;-46
2021/01/04 03:12:24;;;;;;;55.10;28.17;;;0.60;99.90;;;;;;4207441;28;20277;-45
2021/01/04 03:15:17;;;;;;;58.43;28.60;;;0.60;99.90;;;;;;4208489;28;20273;-45
2021/01/04 03:17:47;;;;;;;53.70;27.13;;;0.60;99.90;;;;;;4188370;28;20273;-49
2021/01/04 03:19:53;;;;;;;49.50;26.73;;;0.60;99.90;;;;;;4204546;28;20304;-45
2021/01/04 03:22:06;;;;;;;51.90;25.20;;;0.60;99.90;;;;;;4208257;28;20413;-45
2021/01/04 03:24:14;;;;;;;58.10;28.23;;;0.60;99.90;;;;;;4207185;28;20790;-45
2021/01/04 03:26:23;;;;;;;52.70;28.10;;;0.70;99.90;;;;;;4207988;28;20264;-46
2021/01/04 03:28:28;;;;;;;55.67;28.93;;;0.70;99.90;;;;;;4207550;28;20906;-46
2021/01/04 03:30:29;;;;;;;55.50;27.73;;;0.70;99.90;;;;;;4208327;28;20264;-50
2021/01/04 03:32:30;;;;;;;61.90;31.30;;;0.70;99.90;;;;;;4206597;28;20282;-44
2021/01/04 03:34:31;;;;;;;59.07;31.03;;;0.50;99.90;;;;;;4207491;28;20776;-46
2021/01/04 03:36:33;;;;;;;63.53;32.03;;;0.40;99.90;;;;;;4207590;28;20268;-45
2021/01/04 03:38:34;;;;;;;67.23;33.90;;;0.40;99.90;;;;;;4206981;28;20269;-47
2021/01/04 03:40:36;;;;;;;65.37;32.70;;;0.30;99.90;;;;;;4206931;28;20334;-45
2021/01/04 03:42:37;;;;;;;67.53;34.23;;;0.30;99.90;;;;;;4206987;28;20788;-44
2021/01/04 03:44:40;;;;;;;70.13;34.33;;;0.40;99.90;;;;;;4207952;28;20273;-45
2021/01/04 03:46:45;;;;;;;70.13;34.00;;;0.40;99.90;;;;;;4206889;28;20276;-47
2021/01/04 03:48:46;;;;;;;58.73;30.50;;;0.40;99.90;;;;;;4207727;28;20276;-49
2021/01/04 03:50:48;;;;;;;61.97;33.27;;;0.40;99.90;;;;;;4206510;28;20696;-49
2021/01/04 03:52:50;;;;;;;65.43;34.33;;;0.40;99.90;;;;;;4207918;28;20281;-47
2021/01/04 03:54:51;;;;;;;63.67;33.70;;;0.40;99.90;;;;;;4206695;28;20269;-46
2021/01/04 03:56:53;;;;;;;70.17;33.30;;;0.40;99.90;;;;;;4208142;28;20272;-49
2021/01/04 03:58:54;;;;;;;68.03;32.40;;;0.40;99.90;;;;;;4206513;28;20289;-51
2021/01/04 04:00:55;;;;;;;62.67;33.30;;;0.40;99.90;;;;;;4207572;28;20300;-47
2021/01/04 04:02:56;;;;;;;68.10;34.00;;;0.40;99.90;;;;;;4206740;28;20261;-48
2021/01/04 04:04:58;;;;;;;67.20;32.40;;;0.40;99.90;;;;;;4207000;28;20330;-45
2021/01/04 04:06:59;;;;;;;62.27;32.67;;;0.40;99.90;;;;;;4205559;28;20269;-47
2021/01/04 04:09:00;;;;;;;68.07;33.20;;;0.30;99.90;;;;;;4206803;28;20284;-45
2021/01/04 04:11:01;;;;;;;65.77;32.50;;;0.30;99.90;;;;;;4207567;28;20314;-45
2021/01/04 04:13:02;;;;;;;59.33;32.20;;;0.30;99.90;;;;;;4206082;28;20813;-47
2021/01/04 04:15:09;;;;;;;67.23;32.97;;;0.30;99.90;;;;;;4207136;28;20885;-48
2021/01/04 04:17:10;;;;;;;58.60;31.57;;;0.30;99.90;;;;;;4205197;28;20269;-47
2021/01/04 04:19:13;;;;;;;73.63;37.73;;;0.30;99.90;;;;;;4207469;28;20280;-43
2021/01/04 04:21:15;;;;;;;89.37;40.97;;;0.30;99.90;;;;;;4206358;28;20292;-47
2021/01/04 04:23:16;;;;;;;87.50;41.07;;;0.30;99.90;;;;;;4207467;28;20318;-47
2021/01/04 04:25:19;;;;;;;82.10;38.20;;;0.20;99.90;;;;;;4206187;28;20672;-47
2021/01/04 04:27:20;;;;;;;67.60;33.57;;;0.30;99.90;;;;;;4207152;28;20695;-46
2021/01/04 04:29:21;;;;;;;67.27;32.13;;;0.30;99.90;;;;;;4206270;28;20329;-45
2021/01/04 04:31:23;;;;;;;62.10;32.10;;;0.40;99.90;;;;;;4206822;28;20269;-44
2021/01/04 04:33:24;;;;;;;55.70;28.60;;;0.40;99.90;;;;;;4206088;28;20306;-46
2021/01/04 04:35:26;;;;;;;50.43;27.57;;;0.40;99.90;;;;;;4206494;28;20265;-48
2021/01/04 04:37:27;;;;;;;49.90;26.53;;;0.40;99.90;;;;;;4206200;28;20318;-45
2021/01/04 04:39:29;;;;;;;53.20;27.80;;;0.40;99.90;;;;;;4206885;28;20358;-47
2021/01/04 04:41:56;;;;;;;53.37;28.87;;;0.50;99.90;;;;;;4206620;28;20665;-47
2021/01/04 04:44:07;;;;;;;48.73;26.47;;;0.50;99.90;;;;;;4205064;28;20968;-49
2021/01/04 04:46:19;;;;;;;53.65;29.30;;;0.60;99.90;;;;;;4206122;28;20741;-49
2021/01/04 04:48:36;;;;;;;50.53;25.27;;;0.60;99.90;;;;;;4207046;28;20048;-48
2021/01/04 04:50:37;;;;;;;51.60;26.60;;;0.60;99.90;;;;;;4205818;28;20330;-50
2021/01/04 04:52:57;;;;;;;54.23;28.10;;;0.60;99.90;;;;;;4207275;28;20284;-44
2021/01/04 04:55:01;;;;;;;57.33;28.33;;;0.60;99.90;;;;;;4205730;28;20310;-47
2021/01/04 04:57:38;;;;;;;50.93;26.93;;;0.60;99.90;;;;;;4206831;28;20307;-46
2021/01/04 05:00:25;;;;;;;51.93;25.33;;;0.60;99.90;;;;;;4206036;28;20277;-45
2021/01/04 05:03:24;;;;;;;51.47;27.63;;;0.60;99.90;;;;;;4206764;28;20260;-47
2021/01/04 05:05:40;;;;;;;54.67;27.83;;;0.60;99.90;;;;;;4202751;28;20273;-47
2021/01/04 05:07:51;;;;;;;56.30;28.67;;;0.60;99.90;;;;;;4203598;28;20277;-49
2021/01/04 05:10:00;;;;;;;58.53;30.25;;;0.60;99.90;;;;;;4206391;28;20284;-45
2021/01/04 05:12:15;;;;;;;65.43;33.50;;;0.60;99.90;;;;;;4206057;28;20454;-50
2021/01/04 05:14:24;;;;;;;77.37;32.77;;;0.50;99.90;;;;;;4206695;28;20318;-46
2021/01/04 05:16:51;;;;;;;66.80;33.37;;;0.50;99.90;;;;;;4206255;28;20331;-49
2021/01/04 05:19:10;;;;;;;70.23;34.30;;;0.50;99.90;;;;;;4207096;28;20314;-53
2021/01/04 05:21:23;;;;;;;68.10;33.33;;;0.50;99.90;;;;;;4205001;28;20369;-45
2021/01/04 05:23:39;;;;;;;63.63;33.30;;;0.50;99.90;;;;;;4206787;28;20276;-47
2021/01/04 05:25:49;;;;;;;71.10;36.60;;;0.50;99.90;;;;;;4205435;28;20341;-46
2021/01/04 05:28:14;;;;;;;88.70;44.13;;;0.60;99.90;;;;;;4208623;28;20261;-49
2021/01/04 05:30:18;;;;;;;69.43;33.33;;;0.60;99.90;;;;;;4209021;28;20106;-49
2021/01/04 05:32:38;;;;;;;63.50;32.93;;;0.60;99.90;;;;;;4209569;28;20342;-47
2021/01/04 05:34:53;;;;;;;62.33;33.23;;;0.70;99.90;;;;;;4208777;28;20265;-44
2021/01/04 05:37:31;;;;;;;73.97;36.60;;;0.60;99.90;;;;;;4210013;28;20330;-47
2021/01/04 05:39:58;;;;;;;69.77;33.23;;;0.60;99.90;;;;;;4208775;28;20269;-49
2021/01/04 05:42:13;;;;;;;86.90;40.20;;;0.60;99.90;;;;;;4209331;28;21625;-47
2021/01/04 05:44:37;;;;;;;80.80;41.00;;;0.50;99.90;;;;;;4208727;28;20314;-48
2021/01/04 05:47:15;;;;;;;86.20;39.93;;;0.50;99.90;;;;;;4208276;28;20725;-46
2021/01/04 05:49:30;;;;;;;75.30;37.40;;;0.50;99.90;;;;;;4203444;28;20284;-45
2021/01/04 05:51:37;;;;;;;77.10;37.40;;;0.50;99.90;;;;;;4207980;28;20743;-45
2021/01/04 05:53:39;;;;;;;73.33;36.23;;;0.50;99.90;;;;;;4209433;28;20659;-46
2021/01/04 05:55:40;;;;;;;70.53;34.30;;;0.60;99.90;;;;;;4208336;28;20367;-48
2021/01/04 05:57:47;;;;;;;71.90;36.17;;;0.60;99.90;;;;;;4207781;28;20273;-48
2021/01/04 05:59:53;;;;;;;63.93;33.17;;;0.60;99.90;;;;;;4207451;28;20287;-49
2021/01/04 06:02:03;;;;;;;70.30;36.07;;;0.60;99.90;;;;;;4208771;28;20276;-54
2021/01/04 06:04:06;;;;;;;87.53;41.87;;;0.60;99.90;;;;;;4208492;28;20292;-54
2021/01/04 06:06:20;;;;;;;72.97;37.87;;;0.60;99.90;;;;;;4209247;28;20310;-51
2021/01/04 06:08:26;;;;;;;84.67;43.60;;;0.60;99.90;;;;;;4207987;28;20313;-44
2021/01/04 06:10:32;;;;;;;91.40;46.80;;;0.60;99.90;;;;;;4200759;28;20361;-41
2021/01/04 06:12:37;;;;;;;80.73;42.07;;;0.50;99.90;;;;;;4200351;28;20376;-42
2021/01/04 06:14:40;;;;;;;72.27;38.60;;;0.50;99.90;;;;;;4207472;28;20281;-36
2021/01/04 06:16:44;;;;;;;76.93;38.13;;;0.40;99.90;;;;;;4208033;28;20401;-43
2021/01/04 06:18:51;;;;;;;75.00;37.77;;;0.50;99.90;;;;;;4207252;28;20676;-36
2021/01/04 06:20:52;;;;;;;67.47;33.43;;;0.50;99.90;;;;;;4207828;28;20301;-38
2021/01/04 06:22:53;;;;;;;65.27;32.70;;;0.50;99.90;;;;;;4207217;28;20322;-41
2021/01/04 06:25:01;;;;;;;53.77;29.37;;;0.60;99.90;;;;;;4208242;28;20810;-44
2021/01/04 06:27:13;;;;;;;63.13;32.40;;;0.60;99.90;;;;;;4205175;28;20261;-38
2021/01/04 06:29:14;;;;;;;55.47;29.83;;;0.70;99.90;;;;;;4207548;28;20321;-39
2021/01/04 06:31:45;;;;;;;64.50;31.67;;;0.70;99.90;;;;;;4206784;28;20261;-38
2021/01/04 06:33:58;;;;;;;68.70;34.93;;;0.70;99.90;;;;;;4203473;28;20280;-37
2021/01/04 06:36:17;;;;;;;66.17;36.23;;;0.70;99.90;;;;;;4207758;28;20273;-44
2021/01/04 06:38:29;;;;;;;72.40;40.73;;;0.70;99.90;;;;;;4208318;28;20606;-40
2021/01/04 06:40:33;;;;;;;74.73;39.77;;;0.80;99.90;;;;;;4206890;28;20293;-41
2021/01/04 06:42:41;;;;;;;79.70;43.47;;;0.80;99.90;;;;;;4207231;28;20256;-43
2021/01/04 06:45:12;;;;;;;84.57;42.57;;;0.80;99.90;;;;;;4207399;28;20257;-38
2021/01/04 06:47:22;;;;;;;69.23;38.57;;;0.80;99.90;;;;;;4205632;28;20272;-40
2021/01/04 06:49:27;;;;;;;76.50;39.50;;;0.80;99.90;;;;;;4190713;28;20265;-38
2021/01/04 06:51:53;;;;;;;81.50;40.57;;;0.80;99.90;;;;;;4195092;28;20252;-39
2021/01/04 06:54:14;;;;;;;79.10;40.83;;;0.90;99.90;;;;;;4208976;28;20346;-43
2021/01/04 06:56:44;;;;;;;81.27;40.83;;;0.90;99.90;;;;;;4178693;28;20818;-43
2021/01/04 06:59:09;;;;;;;84.72;42.50;;;0.90;99.90;;;;;;4192177;28;20273;-47
2021/01/04 07:01:25;;;;;;;82.90;43.57;;;1.00;99.90;;;;;;4191180;28;20572;-41
2021/01/04 07:04:04;;;;;;;80.43;44.17;;;1.00;99.90;;;;;;4192136;28;20394;-40
2021/01/04 07:06:49;;;;;;;76.97;42.00;;;1.10;99.90;;;;;;4188054;28;20331;-41
2021/01/04 07:09:02;;;;;;;83.03;43.50;;;1.10;99.90;;;;;;4207350;28;20273;-37
2021/01/04 07:11:31;;;;;;;66.97;35.90;;;1.20;99.90;;;;;;4207624;28;20280;-41
2021/01/04 07:13:59;;;;;;;75.97;36.33;;;1.30;99.90;;;;;;4206771;28;20277;-42
2021/01/04 07:16:03;;;;;;;69.13;34.33;;;1.30;99.90;;;;;;4208454;28;20330;-47
2021/01/04 07:18:43;;;;;;;68.00;35.47;;;1.40;99.90;;;;;;4206537;28;20366;-40
2021/01/04 07:21:14;;;;;;;65.78;34.33;;;1.40;99.90;;;;;;4202857;28;20722;-43
2021/01/04 07:23:27;;;;;;;63.30;34.15;;;1.40;99.90;;;;;;4182171;28;20051;-41
2021/01/04 07:25:31;;;;;;;63.70;33.63;;;1.50;99.90;;;;;;4199083;28;20040;-39
2021/01/04 07:27:51;;;;;;;59.03;31.60;;;1.50;99.90;;;;;;4206769;28;20846;-40
2021/01/04 07:30:34;;;;;;;59.63;31.40;;;1.60;99.90;;;;;;4208186;28;20279;-37
2021/01/04 07:32:53;;;;;;;57.80;30.47;;;1.60;99.90;;;;;;4201810;28;20114;-38
2021/01/04 07:35:01;;;;;;;60.27;31.47;;;1.60;99.90;;;;;;4206697;28;20365;-40
2021/01/04 07:37:16;;;;;;;64.67;33.87;;;1.60;99.90;;;;;;4207802;28;20551;-37
2021/01/04 07:39:23;;;;;;;65.23;34.80;;;1.70;99.90;;;;;;4207012;28;20269;-38
2021/01/04 07:41:43;;;;;;;76.97;38.37;;;1.60;99.90;;;;;;4207232;28;20297;-40
2021/01/04 07:44:06;;;;;;;69.90;36.83;;;1.60;99.90;;;;;;4206769;28;20265;-39
2021/01/04 07:46:39;;;;;;;67.23;37.90;;;1.60;99.90;;;;;;4208048;28;20303;-40
2021/01/04 07:49:03;;;;;;;95.37;56.20;;;1.50;99.90;;;;;;4206715;28;20284;-50
2021/01/04 07:51:39;;;;;;;110.43;61.30;;;1.50;99.90;;;;;;4201081;28;20264;-39
2021/01/04 07:54:07;;;;;;;106.40;55.33;;;1.50;99.90;;;;;;4207035;28;20273;-41
2021/01/04 07:56:59;;;;;;;111.13;55.10;;;1.50;99.90;;;;;;4207477;28;20273;-39
2021/01/04 07:59:46;;;;;;;101.10;54.53;;;1.60;99.90;;;;;;4198601;28;20281;-42
2021/01/04 08:02:06;;;;;;;103.73;54.60;;;1.70;99.90;;;;;;4206399;28;20284;-44
2021/01/04 08:04:40;;;;;;;114.75;60.42;;;1.80;99.90;;;;;;4207658;28;20280;-42
2021/01/04 08:07:00;;;;;;;123.90;64.53;;;1.80;99.90;;;;;;4206374;28;20224;-46
2021/01/04 08:09:25;;;;;;;122.57;68.03;;;1.90;99.90;;;;;;4206936;28;21028;-42
2021/01/04 08:12:18;;;;;;;123.83;67.33;;;1.90;99.90;;;;;;4205435;28;20272;-44
2021/01/04 08:14:46;;;;;;;120.33;64.83;;;1.90;99.90;;;;;;4194314;28;20281;-41
2021/01/04 08:16:52;;;;;;;97.27;50.33;;;2.00;99.90;;;;;;4207498;28;20265;-42
2021/01/04 08:18:59;;;;;;;110.20;57.37;;;2.10;99.90;;;;;;4200494;28;20334;-38
2021/01/04 08:21:28;;;;;;;106.33;55.20;;;2.10;99.90;;;;;;4207050;28;20362;-41
2021/01/04 08:23:58;;;;;;;90.87;50.70;;;2.10;99.90;;;;;;4204358;28;20281;-44
2021/01/04 08:26:12;;;;;;;111.35;53.85;;;2.10;99.90;;;;;;4178384;28;20285;-41
2021/01/04 08:28:23;;;;;;;116.40;58.87;;;2.20;99.90;;;;;;4189505;28;20892;-39
2021/01/04 08:30:31;;;;;;;114.93;60.80;;;2.20;99.90;;;;;;4190571;28;20293;-39
2021/01/04 08:32:53;;;;;;;113.20;58.57;;;2.20;99.90;;;;;;4189430;28;20636;-51
2021/01/04 08:34:54;;;;;;;106.53;54.70;;;2.20;99.90;;;;;;4190393;28;20327;-41
2021/01/04 08:37:00;;;;;;;106.20;53.27;;;2.20;99.90;;;;;;4189598;28;20326;-39
2021/01/04 08:39:13;;;;;;;104.17;52.93;;;2.10;99.90;;;;;;4190897;28;20270;-40
2021/01/04 08:41:20;;;;;;;82.37;43.37;;;2.10;99.90;;;;;;4185421;28;20700;-41
2021/01/04 08:43:32;;;;;;;67.93;34.07;;;2.10;99.90;;;;;;4195511;28;20272;-42
2021/01/04 08:45:45;;;;;;;58.80;32.23;;;2.10;99.90;;;;;;4206246;28;20264;-39
2021/01/04 08:47:49;;;;;;;61.53;31.40;;;2.10;99.90;;;;;;4206976;28;20645;-38
2021/01/04 08:50:20;;;;;;;59.53;31.60;;;2.10;99.90;;;;;;4206304;28;20288;-38
2021/01/04 08:52:22;;;;;;;65.40;32.63;;;2.10;99.90;;;;;;4197994;28;20318;-41
2021/01/04 08:54:32;;;;;;;67.47;31.77;;;2.20;99.90;;;;;;4206561;28;20609;-42
2021/01/04 08:56:47;;;;;;;87.35;41.80;;;2.20;99.90;;;;;;4206815;28;21266;-37
2021/01/04 08:58:48;;;;;;;74.83;38.20;;;2.30;99.90;;;;;;4205011;28;20454;-50
2021/01/04 09:01:01;;;;;;;83.83;43.83;;;2.30;99.90;;;;;;4206695;28;20304;-42
2021/01/04 09:03:02;;;;;;;81.83;44.17;;;2.30;99.90;;;;;;4208138;28;20265;-43
2021/01/04 09:05:07;;;;;;;94.40;52.20;;;2.30;99.90;;;;;;4209658;28;20264;-39
2021/01/04 09:07:10;;;;;;;104.67;56.33;;;2.30;99.90;;;;;;4208581;28;20269;-39
2021/01/04 09:09:20;;;;;;;113.83;59.93;;;2.30;99.90;;;;;;4209235;28;20288;-40
2021/01/04 09:11:21;;;;;;;114.10;58.67;;;2.30;99.90;;;;;;4208265;28;20736;-42
2021/01/04 09:13:22;;;;;;;109.80;56.43;;;2.30;99.90;;;;;;4209400;28;20336;-43
2021/01/04 09:15:24;;;;;;;109.20;55.13;;;2.40;99.90;;;;;;4208148;28;20326;-40
2021/01/04 09:17:33;;;;;;;101.60;53.37;;;2.40;99.90;;;;;;4210032;28;20281;-47
2021/01/04 09:19:37;;;;;;;109.20;54.27;;;2.50;99.90;;;;;;4208054;28;20706;-40
2021/01/04 09:21:42;;;;;;;96.97;51.07;;;2.60;99.90;;;;;;4209396;28;20304;-43
2021/01/04 09:23:44;;;;;;;98.70;52.47;;;2.70;99.90;;;;;;4208599;28;20636;-40
2021/01/04 09:25:50;;;;;;;100.17;50.23;;;2.80;99.90;;;;;;4208421;28;20326;-39
2021/01/04 09:27:54;;;;;;;104.87;51.20;;;2.80;99.90;;;;;;4208423;28;20280;-38
2021/01/04 09:30:00;;;;;;;90.07;48.03;;;2.90;99.90;;;;;;4210039;28;20276;-40
2021/01/04 09:32:10;;;;;;;87.60;46.77;;;3.00;99.90;;;;;;4208622;28;20333;-40
2021/01/04 09:34:16;;;;;;;78.47;41.97;;;3.00;99.90;;;;;;4208184;28;20330;-42
2021/01/04 09:36:22;;;;;;;72.47;38.17;;;3.00;99.90;;;;;;4208092;28;20093;-43
2021/01/04 09:38:25;;;;;;;69.10;36.73;;;2.80;99.90;;;;;;4209449;28;20914;-40
2021/01/04 09:40:27;;;;;;;76.60;41.17;;;2.70;99.90;;;;;;4191901;28;20265;-42
2021/01/04 09:42:30;;;;;;;75.83;39.07;;;2.60;99.90;;;;;;4193385;28;20285;-42
2021/01/04 09:44:31;;;;;;;72.33;38.40;;;2.60;99.90;;;;;;4207982;28;20652;-37
2021/01/04 09:46:46;;;;;;;72.37;39.10;;;2.60;99.90;;;;;;4209079;28;20257;-47
2021/01/04 09:49:07;;;;;;;86.20;46.33;;;2.60;99.90;;;;;;4207416;28;20330;-38
2021/01/04 09:51:10;;;;;;;92.87;50.60;;;2.50;99.90;;;;;;4192422;28;20358;-50
2021/01/04 09:53:31;;;;;;;103.40;54.33;;;2.60;99.90;;;;;;4194223;28;20403;-44
2021/01/04 09:55:45;;;;;;;102.60;55.83;;;2.70;99.90;;;;;;4192199;28;20342;-39
2021/01/04 09:57:46;;;;;;;103.83;55.53;;;2.70;99.90;;;;;;4191108;28;20257;-41
2021/01/04 09:59:49;;;;;;;112.47;58.33;;;2.80;99.90;;;;;;4202943;28;20279;-39
2021/01/04 10:01:54;;;;;;;116.50;61.87;;;2.70;99.90;;;;;;4207979;28;20297;-38
2021/01/04 10:03:58;;;;;;;120.10;65.37;;;2.80;99.90;;;;;;4209403;28;20281;-41
2021/01/04 10:05:59;;;;;;;114.70;63.30;;;2.80;99.90;;;;;;4208947;28;20256;-40
2021/01/04 10:08:05;;;;;;;122.40;65.87;;;2.90;99.90;;;;;;4207308;28;20330;-60
2021/01/04 10:10:12;;;;;;;121.23;65.37;;;2.90;99.90;;;;;;4202516;28;20281;-41
2021/01/04 10:12:16;;;;;;;116.90;64.07;;;3.00;99.90;;;;;;4207644;28;20277;-49
2021/01/04 10:14:19;;;;;;;130.13;68.87;;;2.90;99.90;;;;;;4207100;28;20679;-39
2021/01/04 10:16:24;;;;;;;126.37;68.90;;;3.00;99.90;;;;;;4207942;28;20644;-47
2021/01/04 10:19:00;;;;;;;127.87;70.73;;;3.00;99.90;;;;;;4208051;28;20830;-41
2021/01/04 10:21:02;;;;;;;120.27;68.67;;;3.10;99.90;;;;;;4188799;28;21129;-39
2021/01/04 10:23:04;;;;;;;121.87;63.80;;;3.20;99.90;;;;;;4195731;28;20286;-37
2021/01/04 10:25:16;;;;;;;130.60;69.47;;;3.20;99.90;;;;;;4207371;28;20314;-40
2021/01/04 10:27:20;;;;;;;134.77;69.73;;;3.30;99.90;;;;;;4208300;28;20305;-39
2021/01/04 10:29:25;;;;;;;120.53;70.03;;;3.40;99.90;;;;;;4207615;28;20683;-37
2021/01/04 10:31:28;;;;;;;120.57;68.93;;;3.50;99.90;;;;;;4209725;28;20281;-51
2021/01/04 10:33:36;;;;;;;122.97;67.60;;;3.50;99.90;;;;;;4207676;28;20276;-41
2021/01/04 10:35:37;;;;;;;124.87;68.33;;;3.60;99.90;;;;;;4206034;28;21056;-37
2021/01/04 10:38:09;;;;;;;116.33;65.57;;;3.70;99.90;;;;;;4207280;28;20322;-45
2021/01/04 10:40:14;;;;;;;112.47;59.23;;;3.70;99.90;;;;;;4207436;28;20357;-46
2021/01/04 10:42:22;;;;;;;106.27;59.67;;;3.70;99.90;;;;;;4207550;28;20305;-41
2021/01/04 10:44:27;;;;;;;92.20;50.97;;;3.80;99.90;;;;;;4208005;28;20277;-36
2021/01/04 10:46:33;;;;;;;90.67;47.17;;;3.90;99.90;;;;;;4207342;28;20325;-37
2021/01/04 10:48:35;;;;;;;86.43;45.57;;;4.00;99.90;;;;;;4208930;28;20277;-44
2021/01/04 10:50:45;;;;;;;77.03;44.80;;;4.10;99.90;;;;;;4202475;28;20370;-37
2021/01/04 10:52:54;;;;;;;77.95;43.88;;;4.10;99.90;;;;;;4191534;28;20258;-37
2021/01/04 10:54:55;;;;;;;64.03;34.60;;;4.10;99.90;;;;;;4190449;28;20024;-37
2021/01/04 10:57:05;;;;;;;61.60;34.17;;;4.20;99.90;;;;;;4191663;28;20281;-45
2021/01/04 10:59:28;;;;;;;60.40;32.13;;;4.10;99.90;;;;;;4204642;28;20357;-38
2021/01/04 11:01:36;;;;;;;62.50;32.40;;;4.20;99.90;;;;;;4206837;28;20569;-37
2021/01/04 11:03:44;;;;;;;61.73;32.50;;;4.20;99.90;;;;;;4206598;28;20285;-48
2021/01/04 11:05:49;;;;;;;61.30;34.73;;;4.20;99.90;;;;;;4208839;28;21102;-46
2021/01/04 11:07:50;;;;;;;75.37;42.17;;;4.30;99.90;;;;;;4207096;28;20277;-42
2021/01/04 11:09:51;;;;;;;71.27;39.33;;;4.30;99.90;;;;;;4207638;28;20345;-48
2021/01/04 11:12:06;;;;;;;73.13;40.60;;;4.30;99.90;;;;;;4205623;28;20276;-49
2021/01/04 11:14:20;;;;;;;66.20;37.57;;;4.30;99.90;;;;;;4208051;28;20264;-39
2021/01/04 11:16:21;;;;;;;78.00;41.87;;;4.40;99.90;;;;;;4196090;28;20265;-38
2021/01/04 11:18:22;;;;;;;72.87;38.07;;;4.40;99.90;;;;;;4191532;28;20410;-45
2021/01/04 11:20:23;;;;;;;64.60;34.33;;;4.40;99.90;;;;;;4190426;28;20382;-39
2021/01/04 11:22:27;;;;;;;56.33;32.17;;;4.40;99.90;;;;;;4191251;28;20302;-41
2021/01/04 11:24:28;;;;;;;54.97;30.20;;;4.40;99.90;;;;;;4188536;28;20366;-47